sensor_id;sensor_type;location;lat;lon;timestamp;P1;durP1;ratioP1;P2;durP2;ratioP2
9222;SDS011;7557;51.698;3.942;2022-11-06T00:00:54;7.40;;;5.20;;
9222;SDS011;7557;51.698;3.942;2022-11-06T00:03:26;4.67;;;4.20;;
9222;SDS011;7557;51.698;3.942;2022-11-06T00:05:53;10.00;;;5.03;;
9222;SDS011;7557;51.698;3.942;2022-11-06T00:08:38;9.80;;;5.10;;
9222;SDS011;7557;51.698;3.942;2022-11-06T00:11:07;10.20;;;4.53;;
9222;SDS011;7557;51.698;3.942;2022-11-06T00:13:36;8.90;;;4.63;;
9222;SDS011;7557;51.698;3.942;2022-11-06T00:16:04;9.17;;;4.73;;
9222;SDS011;7557;51.698;3.942;2022-11-06T00:18:35;7.90;;;5.47;;
9222;SDS011;7557;51.698;3.942;2022-11-06T00:21:06;10.13;;;5.30;;
9222;SDS011;7557;51.698;3.942;2022-11-06T00:23:35;6.60;;;5.33;;
9222;SDS011;7557;51.698;3.942;2022-11-06T00:26:04;11.57;;;5.40;;
9222;SDS011;7557;51.698;3.942;2022-11-06T00:28:32;7.03;;;4.83;;
9222;SDS011;7557;51.698;3.942;2022-11-06T00:31:01;8.00;;;5.03;;
9222;SDS011;7557;51.698;3.942;2022-11-06T00:33:29;5.30;;;4.50;;
9222;SDS011;7557;51.698;3.942;2022-11-06T00:36:00;9.93;;;5.30;;
9222;SDS011;7557;51.698;3.942;2022-11-06T00:38:29;7.73;;;5.10;;
9222;SDS011;7557;51.698;3.942;2022-11-06T00:41:00;8.70;;;4.90;;
9222;SDS011;7557;51.698;3.942;2022-11-06T00:43:29;6.13;;;4.33;;
9222;SDS011;7557;51.698;3.942;2022-11-06T00:45:59;7.93;;;5.10;;
9222;SDS011;7557;51.698;3.942;2022-11-06T00:48:28;5.43;;;4.40;;
9222;SDS011;7557;51.698;3.942;2022-11-06T00:51:01;9.03;;;4.87;;
9222;SDS011;7557;51.698;3.942;2022-11-06T00:53:29;8.00;;;5.13;;
9222;SDS011;7557;51.698;3.942;2022-11-06T00:56:02;5.83;;;5.27;;
9222;SDS011;7557;51.698;3.942;2022-11-06T00:58:31;10.10;;;4.90;;
9222;SDS011;7557;51.698;3.942;2022-11-06T01:01:04;7.70;;;5.37;;
9222;SDS011;7557;51.698;3.942;2022-11-06T01:03:32;9.63;;;4.77;;
9222;SDS011;7557;51.698;3.942;2022-11-06T01:06:05;7.63;;;5.10;;
9222;SDS011;7557;51.698;3.942;2022-11-06T01:08:34;7.50;;;4.87;;
9222;SDS011;7557;51.698;3.942;2022-11-06T01:11:05;5.10;;;4.60;;
9222;SDS011;7557;51.698;3.942;2022-11-06T01:13:34;6.93;;;4.77;;
9222;SDS011;7557;51.698;3.942;2022-11-06T01:16:03;9.30;;;4.60;;
9222;SDS011;7557;51.698;3.942;2022-11-06T01:18:32;5.10;;;4.70;;
9222;SDS011;7557;51.698;3.942;2022-11-06T01:21:02;6.53;;;5.40;;
9222;SDS011;7557;51.698;3.942;2022-11-06T01:23:32;9.67;;;5.47;;
9222;SDS011;7557;51.698;3.942;2022-11-06T01:26:01;11.43;;;5.27;;
9222;SDS011;7557;51.698;3.942;2022-11-06T01:28:30;7.80;;;4.80;;
9222;SDS011;7557;51.698;3.942;2022-11-06T01:31:01;11.83;;;4.93;;
9222;SDS011;7557;51.698;3.942;2022-11-06T01:33:29;13.03;;;4.97;;
9222;SDS011;7557;51.698;3.942;2022-11-06T01:35:56;8.80;;;4.97;;
9222;SDS011;7557;51.698;3.942;2022-11-06T01:38:25;8.40;;;4.77;;
9222;SDS011;7557;51.698;3.942;2022-11-06T01:40:53;8.83;;;4.90;;
9222;SDS011;7557;51.698;3.942;2022-11-06T01:43:21;8.77;;;5.33;;
9222;SDS011;7557;51.698;3.942;2022-11-06T01:45:52;14.90;;;5.50;;
9222;SDS011;7557;51.698;3.942;2022-11-06T01:48:21;10.93;;;5.87;;
9222;SDS011;7557;51.698;3.942;2022-11-06T01:50:51;7.17;;;4.47;;
9222;SDS011;7557;51.698;3.942;2022-11-06T01:53:20;6.13;;;5.03;;
9222;SDS011;7557;51.698;3.942;2022-11-06T01:55:55;8.83;;;4.80;;
9222;SDS011;7557;51.698;3.942;2022-11-06T01:58:28;9.10;;;5.13;;
9222;SDS011;7557;51.698;3.942;2022-11-06T02:00:58;9.87;;;5.73;;
9222;SDS011;7557;51.698;3.942;2022-11-06T02:03:26;6.13;;;5.10;;
9222;SDS011;7557;51.698;3.942;2022-11-06T02:05:54;6.70;;;5.20;;
9222;SDS011;7557;51.698;3.942;2022-11-06T02:08:24;9.47;;;5.47;;
9222;SDS011;7557;51.698;3.942;2022-11-06T02:10:53;5.80;;;5.00;;
9222;SDS011;7557;51.698;3.942;2022-11-06T02:13:34;8.70;;;5.73;;
9222;SDS011;7557;51.698;3.942;2022-11-06T02:16:11;9.50;;;5.60;;
9222;SDS011;7557;51.698;3.942;2022-11-06T02:24:50;14.10;;;5.87;;
9222;SDS011;7557;51.698;3.942;2022-11-06T02:27:31;6.83;;;6.13;;
9222;SDS011;7557;51.698;3.942;2022-11-06T02:30:02;13.10;;;5.73;;
9222;SDS011;7557;51.698;3.942;2022-11-06T02:32:32;11.47;;;5.43;;
9222;SDS011;7557;51.698;3.942;2022-11-06T02:35:10;11.87;;;6.60;;
9222;SDS011;7557;51.698;3.942;2022-11-06T02:37:45;7.10;;;5.33;;
9222;SDS011;7557;51.698;3.942;2022-11-06T02:40:14;5.40;;;4.90;;
9222;SDS011;7557;51.698;3.942;2022-11-06T02:42:46;7.03;;;5.37;;
9222;SDS011;7557;51.698;3.942;2022-11-06T02:45:16;5.97;;;5.47;;
9222;SDS011;7557;51.698;3.942;2022-11-06T02:47:46;7.13;;;5.70;;
9222;SDS011;7557;51.698;3.942;2022-11-06T02:50:20;11.00;;;6.67;;
9222;SDS011;7557;51.698;3.942;2022-11-06T02:52:51;8.50;;;5.57;;
9222;SDS011;7557;51.698;3.942;2022-11-06T02:55:22;10.90;;;5.67;;
9222;SDS011;7557;51.698;3.942;2022-11-06T02:57:56;9.03;;;6.30;;
9222;SDS011;7557;51.698;3.942;2022-11-06T03:00:29;8.23;;;5.63;;
9222;SDS011;7557;51.698;3.942;2022-11-06T03:03:00;7.37;;;6.27;;
9222;SDS011;7557;51.698;3.942;2022-11-06T03:05:32;7.70;;;6.07;;
9222;SDS011;7557;51.698;3.942;2022-11-06T03:08:05;11.10;;;6.77;;
9222;SDS011;7557;51.698;3.942;2022-11-06T03:10:38;8.60;;;6.07;;
9222;SDS011;7557;51.698;3.942;2022-11-06T03:13:13;11.83;;;6.27;;
9222;SDS011;7557;51.698;3.942;2022-11-06T03:15:47;12.40;;;6.00;;
9222;SDS011;7557;51.698;3.942;2022-11-06T03:18:22;10.10;;;6.20;;
9222;SDS011;7557;51.698;3.942;2022-11-06T03:20:56;8.80;;;5.83;;
9222;SDS011;7557;51.698;3.942;2022-11-06T03:23:29;8.37;;;6.07;;
9222;SDS011;7557;51.698;3.942;2022-11-06T03:26:02;5.90;;;5.30;;
9222;SDS011;7557;51.698;3.942;2022-11-06T03:28:42;9.60;;;5.80;;
9222;SDS011;7557;51.698;3.942;2022-11-06T03:31:18;11.77;;;6.60;;
9222;SDS011;7557;51.698;3.942;2022-11-06T03:33:53;7.63;;;5.53;;
9222;SDS011;7557;51.698;3.942;2022-11-06T03:36:25;10.20;;;5.70;;
9222;SDS011;7557;51.698;3.942;2022-11-06T03:38:58;9.40;;;5.73;;
9222;SDS011;7557;51.698;3.942;2022-11-06T03:41:29;8.03;;;5.97;;
9222;SDS011;7557;51.698;3.942;2022-11-06T03:44:05;7.93;;;6.20;;
9222;SDS011;7557;51.698;3.942;2022-11-06T03:46:37;8.53;;;6.03;;
9222;SDS011;7557;51.698;3.942;2022-11-06T03:49:09;8.00;;;6.13;;
9222;SDS011;7557;51.698;3.942;2022-11-06T03:51:43;12.37;;;6.20;;
9222;SDS011;7557;51.698;3.942;2022-11-06T03:54:17;10.13;;;6.13;;
9222;SDS011;7557;51.698;3.942;2022-11-06T03:56:49;8.77;;;5.70;;
9222;SDS011;7557;51.698;3.942;2022-11-06T03:59:22;9.10;;;6.37;;
9222;SDS011;7557;51.698;3.942;2022-11-06T04:01:53;9.63;;;6.30;;
9222;SDS011;7557;51.698;3.942;2022-11-06T04:04:24;11.37;;;5.77;;
9222;SDS011;7557;51.698;3.942;2022-11-06T04:06:56;10.33;;;5.57;;
9222;SDS011;7557;51.698;3.942;2022-11-06T04:09:28;8.00;;;6.07;;
9222;SDS011;7557;51.698;3.942;2022-11-06T04:12:17;12.30;;;6.13;;
9222;SDS011;7557;51.698;3.942;2022-11-06T04:15:06;9.07;;;5.60;;
9222;SDS011;7557;51.698;3.942;2022-11-06T04:17:38;10.10;;;5.80;;
9222;SDS011;7557;51.698;3.942;2022-11-06T04:20:08;5.30;;;4.80;;
9222;SDS011;7557;51.698;3.942;2022-11-06T04:22:59;12.80;;;6.33;;
9222;SDS011;7557;51.698;3.942;2022-11-06T04:25:38;8.37;;;5.97;;
9222;SDS011;7557;51.698;3.942;2022-11-06T04:28:33;6.63;;;5.47;;
9222;SDS011;7557;51.698;3.942;2022-11-06T04:31:10;8.70;;;5.77;;
9222;SDS011;7557;51.698;3.942;2022-11-06T04:33:44;9.67;;;5.60;;
9222;SDS011;7557;51.698;3.942;2022-11-06T04:36:20;11.53;;;6.23;;
9222;SDS011;7557;51.698;3.942;2022-11-06T04:38:54;12.23;;;5.53;;
9222;SDS011;7557;51.698;3.942;2022-11-06T04:41:29;6.10;;;5.17;;
9222;SDS011;7557;51.698;3.942;2022-11-06T04:44:06;8.50;;;5.13;;
9222;SDS011;7557;51.698;3.942;2022-11-06T04:46:41;8.33;;;5.47;;
9222;SDS011;7557;51.698;3.942;2022-11-06T04:49:13;12.17;;;5.77;;
9222;SDS011;7557;51.698;3.942;2022-11-06T04:51:42;8.40;;;5.17;;
9222;SDS011;7557;51.698;3.942;2022-11-06T04:54:11;8.47;;;5.33;;
9222;SDS011;7557;51.698;3.942;2022-11-06T04:56:40;7.97;;;5.03;;
9222;SDS011;7557;51.698;3.942;2022-11-06T04:59:08;9.60;;;5.23;;
9222;SDS011;7557;51.698;3.942;2022-11-06T05:01:41;8.03;;;5.30;;
9222;SDS011;7557;51.698;3.942;2022-11-06T05:04:09;8.33;;;5.53;;
9222;SDS011;7557;51.698;3.942;2022-11-06T05:06:37;8.70;;;5.57;;
9222;SDS011;7557;51.698;3.942;2022-11-06T05:09:05;7.60;;;5.33;;
9222;SDS011;7557;51.698;3.942;2022-11-06T05:11:32;6.07;;;5.10;;
9222;SDS011;7557;51.698;3.942;2022-11-06T05:14:00;9.10;;;5.37;;
9222;SDS011;7557;51.698;3.942;2022-11-06T05:16:27;7.80;;;5.07;;
9222;SDS011;7557;51.698;3.942;2022-11-06T05:18:56;8.30;;;5.63;;
9222;SDS011;7557;51.698;3.942;2022-11-06T05:21:23;7.83;;;4.90;;
9222;SDS011;7557;51.698;3.942;2022-11-06T05:24:08;9.10;;;5.33;;
9222;SDS011;7557;51.698;3.942;2022-11-06T05:26:36;10.77;;;5.47;;
9222;SDS011;7557;51.698;3.942;2022-11-06T05:29:04;7.03;;;5.40;;
9222;SDS011;7557;51.698;3.942;2022-11-06T05:31:31;7.83;;;5.70;;
9222;SDS011;7557;51.698;3.942;2022-11-06T05:34:01;6.83;;;5.37;;
9222;SDS011;7557;51.698;3.942;2022-11-06T05:36:28;13.60;;;5.57;;
9222;SDS011;7557;51.698;3.942;2022-11-06T05:38:56;6.40;;;5.53;;
9222;SDS011;7557;51.698;3.942;2022-11-06T05:41:23;12.33;;;5.00;;
9222;SDS011;7557;51.698;3.942;2022-11-06T05:43:51;5.93;;;5.33;;
9222;SDS011;7557;51.698;3.942;2022-11-06T05:46:19;7.80;;;5.50;;
9222;SDS011;7557;51.698;3.942;2022-11-06T05:48:46;9.83;;;5.20;;
9222;SDS011;7557;51.698;3.942;2022-11-06T05:51:15;5.63;;;4.87;;
9222;SDS011;7557;51.698;3.942;2022-11-06T05:53:44;10.17;;;4.90;;
9222;SDS011;7557;51.698;3.942;2022-11-06T05:56:12;6.83;;;4.33;;
9222;SDS011;7557;51.698;3.942;2022-11-06T05:58:40;4.50;;;4.10;;
9222;SDS011;7557;51.698;3.942;2022-11-06T06:01:07;6.93;;;4.03;;
9222;SDS011;7557;51.698;3.942;2022-11-06T06:03:36;7.57;;;3.93;;
9222;SDS011;7557;51.698;3.942;2022-11-06T06:06:03;5.57;;;4.20;;
9222;SDS011;7557;51.698;3.942;2022-11-06T06:08:32;8.13;;;3.77;;
9222;SDS011;7557;51.698;3.942;2022-11-06T06:11:03;9.60;;;3.83;;
9222;SDS011;7557;51.698;3.942;2022-11-06T06:13:34;6.10;;;3.90;;
9222;SDS011;7557;51.698;3.942;2022-11-06T06:16:02;6.37;;;3.13;;
9222;SDS011;7557;51.698;3.942;2022-11-06T06:18:29;4.53;;;3.90;;
9222;SDS011;7557;51.698;3.942;2022-11-06T06:20:57;6.20;;;3.53;;
9222;SDS011;7557;51.698;3.942;2022-11-06T06:23:24;9.00;;;3.57;;
9222;SDS011;7557;51.698;3.942;2022-11-06T06:25:54;4.07;;;2.93;;
9222;SDS011;7557;51.698;3.942;2022-11-06T06:28:22;7.37;;;3.10;;
9222;SDS011;7557;51.698;3.942;2022-11-06T06:30:49;7.67;;;3.93;;
9222;SDS011;7557;51.698;3.942;2022-11-06T06:33:17;5.43;;;3.50;;
9222;SDS011;7557;51.698;3.942;2022-11-06T06:35:45;11.63;;;3.40;;
9222;SDS011;7557;51.698;3.942;2022-11-06T06:38:12;7.50;;;3.43;;
9222;SDS011;7557;51.698;3.942;2022-11-06T06:40:40;8.60;;;3.50;;
9222;SDS011;7557;51.698;3.942;2022-11-06T06:43:09;3.70;;;3.13;;
9222;SDS011;7557;51.698;3.942;2022-11-06T06:45:36;9.07;;;3.20;;
9222;SDS011;7557;51.698;3.942;2022-11-06T06:48:04;7.67;;;3.30;;
9222;SDS011;7557;51.698;3.942;2022-11-06T06:50:33;6.13;;;3.50;;
9222;SDS011;7557;51.698;3.942;2022-11-06T06:53:00;5.33;;;2.90;;
9222;SDS011;7557;51.698;3.942;2022-11-06T06:55:28;3.63;;;3.00;;
9222;SDS011;7557;51.698;3.942;2022-11-06T06:57:56;11.33;;;3.20;;
9222;SDS011;7557;51.698;3.942;2022-11-06T07:00:25;5.67;;;3.03;;
9222;SDS011;7557;51.698;3.942;2022-11-06T07:02:53;7.93;;;3.40;;
9222;SDS011;7557;51.698;3.942;2022-11-06T07:05:20;5.90;;;3.40;;
9222;SDS011;7557;51.698;3.942;2022-11-06T07:07:51;8.97;;;3.80;;
9222;SDS011;7557;51.698;3.942;2022-11-06T07:10:18;9.67;;;3.77;;
9222;SDS011;7557;51.698;3.942;2022-11-06T07:12:50;6.37;;;3.63;;
9222;SDS011;7557;51.698;3.942;2022-11-06T07:15:17;8.17;;;4.03;;
9222;SDS011;7557;51.698;3.942;2022-11-06T07:17:46;9.33;;;4.27;;
9222;SDS011;7557;51.698;3.942;2022-11-06T07:20:13;7.93;;;4.03;;
9222;SDS011;7557;51.698;3.942;2022-11-06T07:22:41;12.03;;;4.43;;
9222;SDS011;7557;51.698;3.942;2022-11-06T07:25:08;8.03;;;4.40;;
9222;SDS011;7557;51.698;3.942;2022-11-06T07:27:36;9.07;;;4.03;;
9222;SDS011;7557;51.698;3.942;2022-11-06T07:30:03;8.07;;;3.57;;
9222;SDS011;7557;51.698;3.942;2022-11-06T07:32:31;6.73;;;3.83;;
9222;SDS011;7557;51.698;3.942;2022-11-06T07:35:00;6.43;;;3.90;;
9222;SDS011;7557;51.698;3.942;2022-11-06T07:37:28;8.40;;;3.20;;
9222;SDS011;7557;51.698;3.942;2022-11-06T07:39:56;9.83;;;3.83;;
9222;SDS011;7557;51.698;3.942;2022-11-06T07:42:23;8.50;;;4.17;;
9222;SDS011;7557;51.698;3.942;2022-11-06T07:44:51;5.67;;;3.43;;
9222;SDS011;7557;51.698;3.942;2022-11-06T07:47:19;5.40;;;3.57;;
9222;SDS011;7557;51.698;3.942;2022-11-06T07:49:47;8.50;;;3.63;;
9222;SDS011;7557;51.698;3.942;2022-11-06T07:52:16;5.70;;;3.40;;
9222;SDS011;7557;51.698;3.942;2022-11-06T07:54:43;3.50;;;3.27;;
9222;SDS011;7557;51.698;3.942;2022-11-06T07:57:11;7.23;;;3.67;;
9222;SDS011;7557;51.698;3.942;2022-11-06T07:59:39;7.63;;;4.10;;
9222;SDS011;7557;51.698;3.942;2022-11-06T08:02:08;8.67;;;3.93;;
9222;SDS011;7557;51.698;3.942;2022-11-06T08:04:37;6.00;;;3.63;;
9222;SDS011;7557;51.698;3.942;2022-11-06T08:07:05;6.67;;;3.53;;
9222;SDS011;7557;51.698;3.942;2022-11-06T08:09:34;7.13;;;4.00;;
9222;SDS011;7557;51.698;3.942;2022-11-06T08:12:02;5.23;;;3.70;;
9222;SDS011;7557;51.698;3.942;2022-11-06T08:14:30;7.20;;;4.00;;
9222;SDS011;7557;51.698;3.942;2022-11-06T08:16:57;10.30;;;3.97;;
9222;SDS011;7557;51.698;3.942;2022-11-06T08:19:25;10.20;;;5.27;;
9222;SDS011;7557;51.698;3.942;2022-11-06T08:21:52;11.40;;;4.57;;
9222;SDS011;7557;51.698;3.942;2022-11-06T08:24:20;7.80;;;3.90;;
9222;SDS011;7557;51.698;3.942;2022-11-06T08:26:49;5.57;;;3.57;;
9222;SDS011;7557;51.698;3.942;2022-11-06T08:29:16;10.53;;;4.77;;
9222;SDS011;7557;51.698;3.942;2022-11-06T08:31:44;8.60;;;3.90;;
9222;SDS011;7557;51.698;3.942;2022-11-06T08:34:11;6.67;;;3.70;;
9222;SDS011;7557;51.698;3.942;2022-11-06T08:36:39;7.63;;;3.87;;
9222;SDS011;7557;51.698;3.942;2022-11-06T08:39:10;6.53;;;3.70;;
9222;SDS011;7557;51.698;3.942;2022-11-06T08:41:38;3.60;;;3.30;;
9222;SDS011;7557;51.698;3.942;2022-11-06T08:44:08;9.93;;;3.63;;
9222;SDS011;7557;51.698;3.942;2022-11-06T08:46:35;5.20;;;3.07;;
9222;SDS011;7557;51.698;3.942;2022-11-06T08:49:03;8.27;;;3.17;;
9222;SDS011;7557;51.698;3.942;2022-11-06T08:51:30;6.20;;;4.07;;
9222;SDS011;7557;51.698;3.942;2022-11-06T08:53:57;5.30;;;3.43;;
9222;SDS011;7557;51.698;3.942;2022-11-06T08:56:25;4.50;;;3.37;;
9222;SDS011;7557;51.698;3.942;2022-11-06T08:58:52;13.90;;;3.50;;
9222;SDS011;7557;51.698;3.942;2022-11-06T09:01:21;7.53;;;4.03;;
9222;SDS011;7557;51.698;3.942;2022-11-06T09:03:49;4.60;;;3.67;;
9222;SDS011;7557;51.698;3.942;2022-11-06T09:06:16;5.73;;;3.77;;
9222;SDS011;7557;51.698;3.942;2022-11-06T09:08:44;6.40;;;3.30;;
9222;SDS011;7557;51.698;3.942;2022-11-06T09:11:11;9.33;;;4.00;;
9222;SDS011;7557;51.698;3.942;2022-11-06T09:13:39;7.30;;;4.30;;
9222;SDS011;7557;51.698;3.942;2022-11-06T09:16:06;7.50;;;3.63;;
9222;SDS011;7557;51.698;3.942;2022-11-06T09:18:36;11.23;;;4.50;;
9222;SDS011;7557;51.698;3.942;2022-11-06T09:21:03;8.20;;;4.33;;
9222;SDS011;7557;51.698;3.942;2022-11-06T09:23:31;13.23;;;3.97;;
9222;SDS011;7557;51.698;3.942;2022-11-06T09:25:58;6.87;;;3.80;;
9222;SDS011;7557;51.698;3.942;2022-11-06T09:28:26;9.77;;;3.83;;
9222;SDS011;7557;51.698;3.942;2022-11-06T09:30:54;6.20;;;3.90;;
9222;SDS011;7557;51.698;3.942;2022-11-06T09:33:21;10.70;;;3.60;;
9222;SDS011;7557;51.698;3.942;2022-11-06T09:35:50;6.63;;;3.87;;
9222;SDS011;7557;51.698;3.942;2022-11-06T09:38:18;4.27;;;3.60;;
9222;SDS011;7557;51.698;3.942;2022-11-06T09:40:47;10.70;;;3.50;;
9222;SDS011;7557;51.698;3.942;2022-11-06T09:43:19;8.70;;;3.83;;
9222;SDS011;7557;51.698;3.942;2022-11-06T09:45:55;7.53;;;3.30;;
9222;SDS011;7557;51.698;3.942;2022-11-06T09:48:27;6.00;;;3.00;;
9222;SDS011;7557;51.698;3.942;2022-11-06T09:51:03;7.67;;;3.80;;
9222;SDS011;7557;51.698;3.942;2022-11-06T09:53:43;9.83;;;3.00;;
9222;SDS011;7557;51.698;3.942;2022-11-06T09:56:13;8.90;;;3.53;;
9222;SDS011;7557;51.698;3.942;2022-11-06T09:58:44;6.10;;;3.60;;
9222;SDS011;7557;51.698;3.942;2022-11-06T10:01:14;6.40;;;3.27;;
9222;SDS011;7557;51.698;3.942;2022-11-06T10:03:46;3.77;;;3.40;;
9222;SDS011;7557;51.698;3.942;2022-11-06T10:06:20;7.90;;;4.10;;
9222;SDS011;7557;51.698;3.942;2022-11-06T10:08:48;9.10;;;3.83;;
9222;SDS011;7557;51.698;3.942;2022-11-06T10:11:23;6.63;;;3.80;;
9222;SDS011;7557;51.698;3.942;2022-11-06T10:14:01;8.53;;;3.87;;
9222;SDS011;7557;51.698;3.942;2022-11-06T10:16:35;5.93;;;3.70;;
9222;SDS011;7557;51.698;3.942;2022-11-06T10:19:09;5.97;;;3.50;;
9222;SDS011;7557;51.698;3.942;2022-11-06T10:21:46;9.23;;;3.90;;
9222;SDS011;7557;51.698;3.942;2022-11-06T10:24:20;8.50;;;4.00;;
9222;SDS011;7557;51.698;3.942;2022-11-06T10:26:50;4.73;;;3.67;;
9222;SDS011;7557;51.698;3.942;2022-11-06T10:29:29;9.13;;;3.77;;
9222;SDS011;7557;51.698;3.942;2022-11-06T10:32:22;6.27;;;3.27;;
9222;SDS011;7557;51.698;3.942;2022-11-06T10:35:13;6.13;;;3.30;;
9222;SDS011;7557;51.698;3.942;2022-11-06T10:37:48;4.60;;;2.73;;
9222;SDS011;7557;51.698;3.942;2022-11-06T10:40:20;3.83;;;2.70;;
9222;SDS011;7557;51.698;3.942;2022-11-06T10:42:52;7.57;;;3.20;;
9222;SDS011;7557;51.698;3.942;2022-11-06T10:45:27;7.47;;;2.97;;
9222;SDS011;7557;51.698;3.942;2022-11-06T10:47:58;8.23;;;4.13;;
9222;SDS011;7557;51.698;3.942;2022-11-06T10:50:33;7.83;;;3.33;;
9222;SDS011;7557;51.698;3.942;2022-11-06T10:53:09;10.10;;;3.20;;
9222;SDS011;7557;51.698;3.942;2022-11-06T10:58:52;8.80;;;3.77;;
9222;SDS011;7557;51.698;3.942;2022-11-06T11:01:19;9.13;;;3.20;;
9222;SDS011;7557;51.698;3.942;2022-11-06T11:03:47;8.20;;;3.40;;
9222;SDS011;7557;51.698;3.942;2022-11-06T11:06:15;4.87;;;2.37;;
9222;SDS011;7557;51.698;3.942;2022-11-06T11:08:45;6.93;;;2.70;;
9222;SDS011;7557;51.698;3.942;2022-11-06T11:11:20;8.67;;;2.77;;
9222;SDS011;7557;51.698;3.942;2022-11-06T11:13:50;8.00;;;2.73;;
9222;SDS011;7557;51.698;3.942;2022-11-06T11:16:33;9.77;;;2.60;;
9222;SDS011;7557;51.698;3.942;2022-11-06T11:19:13;6.07;;;2.47;;
9222;SDS011;7557;51.698;3.942;2022-11-06T11:21:51;7.10;;;2.87;;
9222;SDS011;7557;51.698;3.942;2022-11-06T11:24:21;9.00;;;3.33;;
9222;SDS011;7557;51.698;3.942;2022-11-06T11:26:50;10.27;;;3.33;;
9222;SDS011;7557;51.698;3.942;2022-11-06T11:29:21;3.23;;;2.40;;
9222;SDS011;7557;51.698;3.942;2022-11-06T11:31:51;10.87;;;3.20;;
9222;SDS011;7557;51.698;3.942;2022-11-06T11:34:24;4.10;;;2.70;;
9222;SDS011;7557;51.698;3.942;2022-11-06T11:36:58;3.50;;;2.53;;
9222;SDS011;7557;51.698;3.942;2022-11-06T11:39:29;3.33;;;2.70;;
9222;SDS011;7557;51.698;3.942;2022-11-06T11:45:09;4.40;;;2.90;;
9222;SDS011;7557;51.698;3.942;2022-11-06T11:47:43;3.30;;;2.53;;
9222;SDS011;7557;51.698;3.942;2022-11-06T11:53:02;4.70;;;2.43;;
9222;SDS011;7557;51.698;3.942;2022-11-06T11:55:36;5.37;;;2.43;;
9222;SDS011;7557;51.698;3.942;2022-11-06T11:58:14;3.80;;;2.60;;
9222;SDS011;7557;51.698;3.942;2022-11-06T12:00:48;4.67;;;2.50;;
9222;SDS011;7557;51.698;3.942;2022-11-06T12:03:21;4.57;;;3.50;;
9222;SDS011;7557;51.698;3.942;2022-11-06T12:05:50;6.30;;;3.27;;
9222;SDS011;7557;51.698;3.942;2022-11-06T12:08:21;7.90;;;4.07;;
9222;SDS011;7557;51.698;3.942;2022-11-06T12:10:52;3.77;;;3.40;;
9222;SDS011;7557;51.698;3.942;2022-11-06T12:13:29;8.33;;;3.93;;
9222;SDS011;7557;51.698;3.942;2022-11-06T12:15:57;9.47;;;4.40;;
9222;SDS011;7557;51.698;3.942;2022-11-06T12:18:29;10.37;;;3.93;;
9222;SDS011;7557;51.698;3.942;2022-11-06T12:21:00;4.77;;;3.53;;
9222;SDS011;7557;51.698;3.942;2022-11-06T12:23:33;5.63;;;2.87;;
9222;SDS011;7557;51.698;3.942;2022-11-06T12:26:08;5.10;;;2.77;;
9222;SDS011;7557;51.698;3.942;2022-11-06T12:28:43;6.33;;;2.63;;
9222;SDS011;7557;51.698;3.942;2022-11-06T12:31:16;6.43;;;2.27;;
9222;SDS011;7557;51.698;3.942;2022-11-06T12:33:53;6.70;;;2.57;;
9222;SDS011;7557;51.698;3.942;2022-11-06T12:36:23;3.60;;;2.17;;
9222;SDS011;7557;51.698;3.942;2022-11-06T12:38:54;6.93;;;2.80;;
9222;SDS011;7557;51.698;3.942;2022-11-06T12:41:29;7.23;;;2.37;;
9222;SDS011;7557;51.698;3.942;2022-11-06T12:43:59;6.33;;;2.47;;
9222;SDS011;7557;51.698;3.942;2022-11-06T12:46:31;5.50;;;2.17;;
9222;SDS011;7557;51.698;3.942;2022-11-06T12:52:17;5.10;;;2.50;;
9222;SDS011;7557;51.698;3.942;2022-11-06T12:54:59;3.90;;;2.23;;
9222;SDS011;7557;51.698;3.942;2022-11-06T12:57:45;4.53;;;1.90;;
9222;SDS011;7557;51.698;3.942;2022-11-06T13:00:32;6.63;;;2.67;;
9222;SDS011;7557;51.698;3.942;2022-11-06T13:06:04;6.97;;;2.53;;
9222;SDS011;7557;51.698;3.942;2022-11-06T13:08:38;8.77;;;3.20;;
9222;SDS011;7557;51.698;3.942;2022-11-06T13:11:15;6.43;;;2.60;;
9222;SDS011;7557;51.698;3.942;2022-11-06T13:13:58;5.73;;;2.53;;
9222;SDS011;7557;51.698;3.942;2022-11-06T13:16:37;3.00;;;2.50;;
9222;SDS011;7557;51.698;3.942;2022-11-06T13:19:10;4.07;;;2.47;;
9222;SDS011;7557;51.698;3.942;2022-11-06T13:24:42;3.00;;;2.40;;
9222;SDS011;7557;51.698;3.942;2022-11-06T13:27:16;3.30;;;1.97;;
9222;SDS011;7557;51.698;3.942;2022-11-06T13:29:51;5.50;;;2.10;;
9222;SDS011;7557;51.698;3.942;2022-11-06T13:32:23;2.90;;;1.83;;
9222;SDS011;7557;51.698;3.942;2022-11-06T13:34:53;4.37;;;2.10;;
9222;SDS011;7557;51.698;3.942;2022-11-06T13:37:24;2.47;;;1.87;;
9222;SDS011;7557;51.698;3.942;2022-11-06T13:39:58;5.07;;;2.13;;
9222;SDS011;7557;51.698;3.942;2022-11-06T13:42:29;6.07;;;2.40;;
9222;SDS011;7557;51.698;3.942;2022-11-06T13:45:03;4.60;;;2.00;;
9222;SDS011;7557;51.698;3.942;2022-11-06T13:47:34;3.03;;;2.00;;
9222;SDS011;7557;51.698;3.942;2022-11-06T13:50:09;4.80;;;2.20;;
9222;SDS011;7557;51.698;3.942;2022-11-06T13:52:45;3.80;;;2.23;;
9222;SDS011;7557;51.698;3.942;2022-11-06T13:55:21;6.03;;;2.40;;
9222;SDS011;7557;51.698;3.942;2022-11-06T13:58:02;3.33;;;1.90;;
9222;SDS011;7557;51.698;3.942;2022-11-06T14:00:47;4.80;;;2.10;;
9222;SDS011;7557;51.698;3.942;2022-11-06T14:03:44;2.40;;;2.20;;
9222;SDS011;7557;51.698;3.942;2022-11-06T14:06:27;3.17;;;2.40;;
9222;SDS011;7557;51.698;3.942;2022-11-06T14:08:58;4.77;;;3.00;;
9222;SDS011;7557;51.698;3.942;2022-11-06T14:11:28;4.67;;;3.00;;
9222;SDS011;7557;51.698;3.942;2022-11-06T14:13:59;4.77;;;2.50;;
9222;SDS011;7557;51.698;3.942;2022-11-06T14:16:30;6.47;;;2.33;;
9222;SDS011;7557;51.698;3.942;2022-11-06T14:19:05;5.53;;;2.40;;
9222;SDS011;7557;51.698;3.942;2022-11-06T14:24:21;2.97;;;1.83;;
9222;SDS011;7557;51.698;3.942;2022-11-06T14:26:58;4.73;;;1.83;;
9222;SDS011;7557;51.698;3.942;2022-11-06T14:32:35;1.97;;;1.87;;
9222;SDS011;7557;51.698;3.942;2022-11-06T14:40:58;4.23;;;2.07;;
9222;SDS011;7557;51.698;3.942;2022-11-06T14:43:27;5.33;;;2.13;;
9222;SDS011;7557;51.698;3.942;2022-11-06T14:45:57;8.00;;;2.40;;
9222;SDS011;7557;51.698;3.942;2022-11-06T14:48:33;2.27;;;2.07;;
9222;SDS011;7557;51.698;3.942;2022-11-06T14:51:03;4.47;;;2.27;;
9222;SDS011;7557;51.698;3.942;2022-11-06T14:53:35;5.37;;;2.20;;
9222;SDS011;7557;51.698;3.942;2022-11-06T14:56:06;5.67;;;2.43;;
9222;SDS011;7557;51.698;3.942;2022-11-06T14:58:35;5.33;;;2.30;;
9222;SDS011;7557;51.698;3.942;2022-11-06T15:01:11;6.63;;;2.40;;
9222;SDS011;7557;51.698;3.942;2022-11-06T15:03:44;5.17;;;2.10;;
9222;SDS011;7557;51.698;3.942;2022-11-06T15:06:32;3.73;;;2.50;;
9222;SDS011;7557;51.698;3.942;2022-11-06T15:09:10;2.30;;;2.07;;
9222;SDS011;7557;51.698;3.942;2022-11-06T15:11:49;2.97;;;2.43;;
9222;SDS011;7557;51.698;3.942;2022-11-06T15:17:24;3.87;;;2.53;;
9222;SDS011;7557;51.698;3.942;2022-11-06T15:23:02;4.07;;;2.57;;
9222;SDS011;7557;51.698;3.942;2022-11-06T15:25:33;7.30;;;3.00;;
9222;SDS011;7557;51.698;3.942;2022-11-06T15:28:06;3.30;;;2.83;;
9222;SDS011;7557;51.698;3.942;2022-11-06T15:30:39;4.87;;;2.60;;
9222;SDS011;7557;51.698;3.942;2022-11-06T15:33:13;9.33;;;3.50;;
9222;SDS011;7557;51.698;3.942;2022-11-06T15:35:45;3.30;;;3.10;;
9222;SDS011;7557;51.698;3.942;2022-11-06T15:38:15;7.27;;;2.70;;
9222;SDS011;7557;51.698;3.942;2022-11-06T15:40:45;6.93;;;2.63;;
9222;SDS011;7557;51.698;3.942;2022-11-06T15:43:20;4.47;;;3.30;;
9222;SDS011;7557;51.698;3.942;2022-11-06T15:46:01;4.23;;;3.20;;
9222;SDS011;7557;51.698;3.942;2022-11-06T15:48:41;3.67;;;2.67;;
9222;SDS011;7557;51.698;3.942;2022-11-06T15:51:20;4.47;;;3.33;;
9222;SDS011;7557;51.698;3.942;2022-11-06T15:53:51;7.87;;;4.30;;
9222;SDS011;7557;51.698;3.942;2022-11-06T15:56:20;3.93;;;3.60;;
9222;SDS011;7557;51.698;3.942;2022-11-06T15:59:05;9.57;;;4.40;;
9222;SDS011;7557;51.698;3.942;2022-11-06T16:01:34;4.27;;;3.87;;
9222;SDS011;7557;51.698;3.942;2022-11-06T16:04:03;3.57;;;3.37;;
9222;SDS011;7557;51.698;3.942;2022-11-06T16:06:34;5.70;;;4.10;;
9222;SDS011;7557;51.698;3.942;2022-11-06T16:09:03;4.67;;;3.97;;
9222;SDS011;7557;51.698;3.942;2022-11-06T16:11:31;6.77;;;4.43;;
9222;SDS011;7557;51.698;3.942;2022-11-06T16:13:59;5.07;;;4.63;;
9222;SDS011;7557;51.698;3.942;2022-11-06T16:16:30;5.90;;;5.03;;
9222;SDS011;7557;51.698;3.942;2022-11-06T16:19:00;6.80;;;5.50;;
9222;SDS011;7557;51.698;3.942;2022-11-06T16:21:30;7.10;;;5.23;;